createdAt,value
2022-10-29T00:02:04.471Z,6.93
2022-10-29T00:04:36.845Z,6.95
2022-10-29T00:07:09.128Z,6.93
2022-10-29T00:09:41.478Z,6.82
2022-10-29T00:12:13.799Z,6.79
2022-10-29T00:14:46.098Z,6.77
2022-10-29T00:17:19.117Z,6.78
2022-10-29T00:19:51.448Z,6.72
2022-10-29T00:22:23.793Z,6.70
2022-10-29T00:24:56.079Z,6.65
2022-10-29T00:27:28.361Z,6.64
2022-10-29T00:30:00.819Z,6.66
2022-10-29T00:32:33.796Z,6.64
2022-10-29T00:35:06.394Z,6.58
2022-10-29T00:37:40.181Z,6.51
2022-10-29T00:40:12.832Z,6.51
2022-10-29T00:42:45.116Z,6.43
2022-10-29T00:45:20.184Z,6.36
2022-10-29T00:47:53.641Z,6.27
2022-10-29T00:50:26.098Z,6.28
2022-10-29T00:52:58.970Z,6.26
2022-10-29T00:55:31.889Z,6.26
2022-10-29T00:58:04.565Z,6.26
2022-10-29T01:00:38.105Z,6.17
2022-10-29T01:03:11.161Z,6.10
2022-10-29T01:05:45.286Z,6.11
2022-10-29T01:08:18.310Z,6.10
2022-10-29T01:11:02.698Z,6.10
2022-10-29T01:13:55.130Z,6.10
2022-10-29T01:16:35.895Z,6.03
2022-10-29T01:19:19.278Z,5.86
2022-10-29T01:21:58.767Z,5.87
2022-10-29T01:25:04.600Z,5.86
2022-10-29T01:27:57.257Z,5.80
2022-10-29T01:31:05.318Z,5.73
2022-10-29T01:33:43.713Z,5.79
2022-10-29T01:36:23.948Z,5.84
2022-10-29T01:39:04.863Z,5.83
2022-10-29T01:41:46.789Z,5.79
2022-10-29T01:44:30.285Z,5.85
2022-10-29T01:47:05.295Z,5.73
2022-10-29T01:49:40.207Z,5.69
2022-10-29T01:52:15.087Z,5.68
2022-10-29T01:54:48.072Z,5.64
2022-10-29T01:57:28.565Z,5.64
2022-10-29T02:00:04.479Z,5.60
2022-10-29T02:03:06.875Z,5.48
2022-10-29T02:05:50.809Z,5.64
2022-10-29T02:08:35.415Z,5.57
2022-10-29T02:11:11.998Z,5.46
2022-10-29T02:13:50.146Z,5.46
2022-10-29T02:16:24.828Z,5.38
2022-10-29T02:18:58.021Z,5.34
2022-10-29T02:21:30.383Z,5.33
2022-10-29T02:24:02.721Z,5.35
2022-10-29T02:26:35.040Z,5.37
2022-10-29T02:29:07.345Z,5.35
2022-10-29T02:31:39.607Z,5.28
2022-10-29T02:34:12.915Z,5.22
2022-10-29T02:36:45.234Z,5.24
2022-10-29T02:39:17.522Z,5.21
2022-10-29T02:41:49.888Z,5.28
2022-10-29T02:44:22.187Z,5.29
2022-10-29T02:46:54.453Z,5.20
2022-10-29T02:49:27.668Z,5.24
2022-10-29T02:51:59.949Z,5.19
2022-10-29T02:54:32.297Z,5.10
2022-10-29T02:57:04.705Z,5.10
2022-10-29T02:59:37.053Z,5.05
2022-10-29T03:02:09.473Z,5.10
2022-10-29T03:04:44.052Z,5.07
2022-10-29T03:07:16.353Z,5.05
2022-10-29T03:09:48.636Z,5.05
2022-10-29T03:12:20.989Z,5.00
2022-10-29T03:14:53.252Z,5.01
2022-10-29T03:17:25.654Z,5.00
2022-10-29T03:19:58.584Z,5.00
2022-10-29T03:22:30.880Z,4.93
2022-10-29T03:25:03.491Z,4.88
2022-10-29T03:27:40.681Z,4.86
2022-10-29T03:30:15.301Z,4.83
2022-10-29T03:32:47.946Z,4.78
2022-10-29T03:35:21.309Z,4.75
2022-10-29T03:37:53.668Z,4.73
2022-10-29T03:40:25.966Z,4.75
2022-10-29T03:42:58.558Z,4.79
2022-10-29T03:45:31.089Z,4.68
2022-10-29T03:48:04.314Z,4.70
2022-10-29T03:50:37.269Z,4.68
2022-10-29T03:53:10.380Z,4.61
2022-10-29T03:55:42.712Z,4.62
2022-10-29T03:58:15.053Z,4.62
2022-10-29T04:00:54.159Z,4.66
2022-10-29T04:03:28.092Z,4.63
2022-10-29T04:06:02.673Z,4.61
2022-10-29T04:08:35.002Z,4.52
2022-10-29T04:11:10.162Z,4.55
2022-10-29T04:13:42.483Z,4.51
2022-10-29T04:16:14.798Z,4.55
2022-10-29T04:18:47.312Z,4.53
2022-10-29T04:29:57.237Z,4.59
2022-10-29T04:32:29.579Z,4.59
2022-10-29T04:35:01.877Z,4.55
2022-10-29T04:37:34.844Z,4.51
2022-10-29T04:40:08.257Z,4.47
2022-10-29T04:42:40.718Z,4.44
2022-10-29T04:45:13.089Z,4.45
2022-10-29T04:47:45.750Z,4.34
2022-10-29T04:50:18.016Z,4.52
2022-10-29T04:52:51.087Z,4.33
2022-10-29T04:55:23.400Z,4.26
2022-10-29T04:57:56.320Z,4.35
2022-10-29T05:00:28.903Z,4.36
2022-10-29T05:03:01.220Z,4.40
2022-10-29T05:05:33.748Z,4.41
2022-10-29T05:08:06.885Z,4.45
2022-10-29T05:10:39.774Z,4.37
2022-10-29T05:13:12.852Z,4.38
2022-10-29T05:15:52.984Z,4.38
2022-10-29T05:18:26.105Z,4.37
2022-10-29T05:20:58.416Z,4.38
2022-10-29T05:23:31.460Z,4.41
2022-10-29T05:26:03.982Z,4.40
2022-10-29T05:28:36.263Z,4.32
2022-10-29T05:31:08.527Z,4.37
2022-10-29T05:33:40.832Z,4.34
2022-10-29T05:36:13.148Z,4.36
2022-10-29T05:38:46.127Z,4.41
2022-10-29T05:41:18.556Z,4.40
2022-10-29T05:43:50.902Z,4.47
2022-10-29T05:46:23.177Z,4.45
2022-10-29T05:48:55.584Z,4.44
2022-10-29T05:51:27.881Z,4.32
2022-10-29T05:54:00.956Z,4.35
2022-10-29T05:56:33.280Z,4.31
2022-10-29T05:59:05.576Z,4.39
2022-10-29T06:01:38.199Z,4.36
2022-10-29T06:04:10.597Z,4.41
2022-10-29T06:06:42.943Z,4.45
2022-10-29T06:09:16.031Z,4.43
2022-10-29T06:11:48.337Z,4.50
2022-10-29T06:14:20.640Z,4.57
2022-10-29T06:16:52.935Z,4.68
2022-10-29T06:19:25.265Z,4.73
2022-10-29T06:22:00.314Z,4.79
2022-10-29T06:24:33.725Z,4.89
2022-10-29T06:27:06.004Z,5.01
2022-10-29T06:29:38.337Z,5.10
2022-10-29T06:32:10.651Z,5.22
2022-10-29T06:34:43.091Z,5.30
2022-10-29T06:37:15.395Z,5.45
2022-10-29T06:39:48.376Z,5.56
2022-10-29T06:42:20.715Z,5.64
2022-10-29T06:44:53.062Z,5.83
2022-10-29T06:47:25.399Z,6.01
2022-10-29T06:49:57.775Z,6.20
2022-10-29T06:52:30.479Z,6.33
2022-10-29T06:55:04.871Z,6.58
2022-10-29T06:57:37.232Z,6.83
2022-10-29T07:00:10.517Z,7.07
2022-10-29T07:02:43.126Z,7.32
2022-10-29T07:05:15.671Z,7.56
2022-10-29T07:07:48.267Z,7.78
2022-10-29T07:10:21.222Z,7.98
2022-10-29T07:12:53.566Z,8.12
2022-10-29T07:15:27.807Z,8.47
2022-10-29T07:18:04.353Z,8.72
2022-10-29T07:20:39.517Z,8.94
2022-10-29T07:23:13.035Z,9.11
2022-10-29T07:25:46.184Z,9.34
2022-10-29T07:28:20.946Z,9.58
2022-10-29T07:30:58.847Z,9.86
2022-10-29T07:33:31.313Z,10.08
2022-10-29T07:36:04.105Z,10.30
2022-10-29T07:38:36.432Z,10.53
2022-10-29T07:41:09.471Z,10.68
2022-10-29T07:43:41.814Z,10.93
2022-10-29T07:46:14.173Z,11.07
2022-10-29T07:48:46.679Z,11.32
2022-10-29T07:51:19.431Z,11.51
2022-10-29T07:53:51.764Z,11.63
2022-10-29T07:56:24.736Z,11.85
2022-10-29T07:58:57.029Z,12.04
2022-10-29T08:01:29.438Z,12.17
2022-10-29T08:04:02.049Z,12.39
2022-10-29T08:06:34.365Z,12.53
2022-10-29T08:09:06.778Z,12.61
2022-10-29T08:11:39.803Z,12.73
2022-10-29T08:14:12.465Z,12.88
2022-10-29T08:16:44.829Z,13.05
2022-10-29T08:19:17.126Z,13.18
2022-10-29T08:21:49.503Z,13.22
2022-10-29T08:24:22.198Z,13.34
2022-10-29T08:26:55.250Z,13.37
2022-10-29T08:29:27.573Z,13.51
2022-10-29T08:31:59.933Z,13.56
2022-10-29T08:34:32.281Z,13.72
2022-10-29T08:37:04.601Z,13.85
2022-10-29T08:39:36.912Z,14.00
2022-10-29T08:42:23.334Z,14.04
2022-10-29T08:45:19.821Z,14.09
2022-10-29T08:48:11.114Z,14.20
2022-10-29T08:50:46.327Z,14.30
2022-10-29T08:53:24.043Z,14.49
2022-10-29T08:55:58.516Z,14.76
2022-10-29T08:58:37.988Z,14.84
2022-10-29T09:01:12.040Z,14.81
2022-10-29T09:03:44.590Z,14.95
2022-10-29T09:06:24.158Z,15.15
2022-10-29T09:09:11.850Z,15.13
2022-10-29T09:12:06.917Z,15.16
2022-10-29T09:14:52.657Z,15.33
2022-10-29T09:17:35.068Z,15.37
2022-10-29T09:20:22.491Z,15.60
2022-10-29T09:23:05.406Z,15.77
2022-10-29T09:25:46.808Z,15.86
2022-10-29T09:28:31.157Z,15.82
2022-10-29T09:31:16.353Z,15.87
2022-10-29T09:33:54.309Z,16.03
2022-10-29T09:36:30.816Z,16.18
2022-10-29T09:39:10.231Z,16.12
2022-10-29T09:41:44.713Z,16.10
2022-10-29T09:44:23.063Z,16.18
2022-10-29T09:47:11.898Z,16.08
2022-10-29T09:50:05.052Z,16.02
2022-10-29T09:52:43.536Z,16.09
2022-10-29T09:55:20.631Z,16.11
2022-10-29T09:57:55.904Z,16.20
2022-10-29T10:00:30.876Z,16.40
2022-10-29T10:03:12.097Z,16.46
2022-10-29T10:05:59.972Z,16.60
2022-10-29T10:08:34.232Z,16.52
2022-10-29T10:11:07.466Z,16.62
2022-10-29T10:13:52.552Z,16.74
2022-10-29T10:16:27.688Z,16.75
2022-10-29T10:19:00.765Z,16.84
2022-10-29T10:21:33.417Z,16.84
2022-10-29T10:24:28.989Z,16.91
2022-10-29T10:27:01.681Z,17.05
2022-10-29T10:29:34.035Z,17.09
2022-10-29T10:32:16.034Z,17.14
2022-10-29T10:34:49.069Z,17.29
2022-10-29T10:37:22.533Z,17.35
2022-10-29T10:40:01.172Z,17.39
2022-10-29T10:42:38.768Z,17.38
2022-10-29T10:45:15.378Z,17.48
2022-10-29T10:47:53.267Z,17.49
2022-10-29T10:50:29.650Z,17.50
2022-10-29T10:53:04.993Z,17.51
2022-10-29T10:55:38.229Z,17.71
2022-10-29T10:58:15.988Z,17.84
2022-10-29T11:00:53.449Z,17.74
2022-10-29T11:03:34.225Z,17.75
2022-10-29T11:06:11.730Z,18.10
2022-10-29T11:08:49.597Z,18.19
2022-10-29T11:11:27.805Z,18.20
2022-10-29T11:14:05.206Z,18.06
2022-10-29T11:16:43.453Z,17.89
2022-10-29T11:19:24.472Z,18.14
2022-10-29T11:22:06.270Z,18.18
2022-10-29T11:24:46.951Z,18.30
2022-10-29T11:27:29.635Z,18.40
2022-10-29T11:30:05.028Z,18.41
2022-10-29T11:32:57.090Z,18.42
2022-10-29T11:35:40.444Z,18.51
2022-10-29T11:38:18.711Z,18.70
2022-10-29T11:40:57.680Z,18.56
2022-10-29T11:43:30.973Z,18.69
2022-10-29T11:46:13.072Z,18.73
2022-10-29T11:48:56.813Z,18.77
2022-10-29T11:51:38.677Z,18.83
2022-10-29T11:54:24.904Z,18.89
2022-10-29T11:57:01.657Z,18.89
2022-10-29T11:59:45.399Z,19.05
2022-10-29T12:02:33.965Z,19.06
2022-10-29T12:05:17.074Z,18.87
2022-10-29T12:08:07.775Z,19.00
2022-10-29T12:10:49.873Z,19.11
2022-10-29T12:13:35.126Z,19.21
2022-10-29T12:16:17.749Z,19.24
2022-10-29T12:18:56.907Z,19.15
2022-10-29T12:21:38.417Z,19.08
2022-10-29T12:24:33.945Z,19.06
2022-10-29T12:27:15.021Z,19.15
2022-10-29T12:29:58.209Z,19.16
2022-10-29T12:32:37.465Z,19.26
2022-10-29T12:35:15.637Z,19.20
2022-10-29T12:38:05.299Z,18.96
2022-10-29T12:40:40.793Z,19.04
2022-10-29T12:43:19.771Z,18.91
2022-10-29T12:46:19.044Z,18.89
2022-10-29T12:49:05.768Z,19.04
2022-10-29T12:51:46.455Z,19.23
2022-10-29T12:54:30.665Z,19.21
2022-10-29T12:57:18.110Z,19.34
2022-10-29T12:59:51.223Z,19.58
2022-10-29T13:02:29.753Z,19.44
2022-10-29T13:05:36.113Z,19.66
2022-10-29T13:08:34.882Z,19.84
2022-10-29T13:11:22.048Z,19.90
2022-10-29T13:14:00.024Z,20.19
2022-10-29T13:16:33.166Z,19.94
2022-10-29T13:19:18.509Z,20.07
2022-10-29T13:21:59.304Z,20.31
2022-10-29T13:24:32.026Z,20.35
2022-10-29T13:27:20.944Z,20.28
2022-10-29T13:30:16.845Z,19.73
2022-10-29T13:32:49.872Z,19.73
2022-10-29T13:35:41.437Z,19.60
2022-10-29T13:38:18.144Z,19.68
2022-10-29T13:41:11.185Z,19.66
2022-10-29T13:43:53.749Z,19.69
2022-10-29T13:46:32.981Z,19.76
2022-10-29T13:49:12.565Z,19.72
2022-10-29T13:51:53.041Z,19.82
2022-10-29T13:54:31.760Z,19.69
2022-10-29T13:57:08.424Z,19.63
2022-10-29T13:59:43.099Z,19.66
2022-10-29T14:02:29.738Z,19.79
2022-10-29T14:05:12.886Z,19.46
2022-10-29T14:07:52.477Z,19.50
2022-10-29T14:13:23.693Z,19.45
2022-10-29T14:16:01.638Z,19.27
2022-10-29T14:18:37.612Z,19.43
2022-10-29T14:21:16.073Z,19.54
2022-10-29T14:23:56.054Z,19.46
2022-10-29T14:26:30.455Z,19.35
2022-10-29T14:29:13.177Z,19.37
2022-10-29T14:31:45.573Z,19.35
2022-10-29T14:34:27.356Z,19.03
2022-10-29T14:37:02.882Z,18.82
2022-10-29T14:39:48.814Z,18.89
2022-10-29T14:42:32.001Z,18.74
2022-10-29T14:45:07.066Z,18.54
2022-10-29T14:47:39.453Z,18.51
2022-10-29T14:50:17.093Z,18.51
2022-10-29T14:52:53.904Z,18.40
2022-10-29T14:55:30.483Z,18.29
2022-10-29T14:58:07.306Z,18.28
2022-10-29T15:00:53.574Z,18.17
2022-10-29T15:03:29.087Z,18.11
2022-10-29T15:06:14.204Z,18.07
2022-10-29T15:08:55.518Z,18.02
2022-10-29T15:11:34.296Z,17.93
2022-10-29T15:14:25.320Z,17.87
2022-10-29T15:16:58.764Z,17.78
2022-10-29T15:19:31.198Z,17.72
2022-10-29T15:22:08.096Z,17.58
2022-10-29T15:24:45.488Z,17.55
2022-10-29T15:27:17.973Z,17.40
2022-10-29T15:29:53.272Z,17.31
2022-10-29T15:32:30.555Z,17.17
2022-10-29T15:35:10.065Z,17.04
2022-10-29T15:37:45.072Z,16.96
2022-10-29T15:40:21.938Z,16.84
2022-10-29T15:42:55.446Z,16.74
2022-10-29T15:45:28.377Z,16.55
2022-10-29T15:48:29.153Z,16.42
2022-10-29T15:51:01.661Z,16.30
2022-10-29T15:53:35.158Z,16.03
2022-10-29T15:56:12.030Z,15.91
2022-10-29T15:58:44.430Z,15.77
2022-10-29T16:01:17.006Z,15.66
2022-10-29T16:03:49.837Z,15.57
2022-10-29T16:06:22.345Z,15.41
2022-10-29T16:08:57.641Z,15.15
2022-10-29T16:11:30.773Z,15.00
2022-10-29T16:14:03.093Z,14.95
2022-10-29T16:16:37.646Z,14.85
2022-10-29T16:19:10.031Z,14.59
2022-10-29T16:21:42.469Z,14.40
2022-10-29T16:24:15.258Z,14.35
2022-10-29T16:26:48.282Z,14.30
2022-10-29T16:29:20.613Z,14.26
2022-10-29T16:31:53.008Z,14.16
2022-10-29T16:34:25.332Z,14.08
2022-10-29T16:36:57.664Z,14.06
2022-10-29T16:39:29.979Z,13.92
2022-10-29T16:42:03.010Z,13.76
2022-10-29T16:44:35.396Z,13.60
2022-10-29T16:47:07.750Z,13.53
2022-10-29T16:49:40.074Z,13.47
2022-10-29T16:52:15.103Z,13.39
2022-10-29T16:54:51.228Z,13.39
2022-10-29T16:57:24.378Z,13.29
2022-10-29T16:59:56.742Z,13.16
2022-10-29T17:02:29.119Z,13.00
2022-10-29T17:05:01.456Z,12.96
2022-10-29T17:07:33.785Z,12.94
2022-10-29T17:10:07.373Z,12.93
2022-10-29T17:12:40.402Z,12.80
2022-10-29T17:15:12.698Z,12.78
2022-10-29T17:17:46.468Z,12.77
2022-10-29T17:20:19.283Z,12.71
2022-10-29T17:22:52.500Z,12.52
2022-10-29T17:25:24.881Z,12.52
2022-10-29T17:27:58.235Z,12.44
2022-10-29T17:30:30.967Z,12.43
2022-10-29T17:33:03.348Z,12.28
2022-10-29T17:35:35.686Z,12.22
2022-10-29T17:38:08.458Z,12.11
2022-10-29T17:40:42.875Z,12.08
2022-10-29T17:43:15.903Z,12.05
2022-10-29T17:45:49.910Z,11.99
2022-10-29T17:48:24.922Z,11.91
2022-10-29T17:50:59.408Z,11.85
2022-10-29T17:53:31.774Z,11.84
2022-10-29T17:56:04.476Z,11.80
2022-10-29T17:58:38.628Z,11.82
2022-10-29T18:01:11.251Z,11.71
2022-10-29T18:03:43.961Z,11.77
2022-10-29T18:06:16.638Z,11.71
2022-10-29T18:08:48.988Z,11.71
2022-10-29T18:11:22.801Z,11.65
2022-10-29T18:13:57.401Z,11.59
2022-10-29T18:16:29.992Z,11.55
2022-10-29T18:19:03.426Z,11.56
2022-10-29T18:21:35.819Z,11.53
2022-10-29T18:24:08.880Z,11.49
2022-10-29T18:26:41.231Z,11.46
2022-10-29T18:29:14.231Z,11.43
2022-10-29T18:31:46.604Z,11.34
2022-10-29T18:34:18.934Z,11.24
2022-10-29T18:36:51.289Z,11.20
2022-10-29T18:39:23.636Z,11.08
2022-10-29T18:41:56.306Z,10.94
2022-10-29T18:44:29.599Z,10.99
2022-10-29T18:47:02.004Z,10.88
2022-10-29T18:49:34.381Z,10.94
2022-10-29T18:52:06.768Z,10.89
2022-10-29T18:54:40.143Z,10.79
2022-10-29T18:57:16.775Z,10.76
2022-10-29T18:59:52.304Z,10.73
2022-10-29T19:02:25.965Z,10.67
2022-10-29T19:04:58.344Z,10.59
2022-10-29T19:07:30.683Z,10.56
2022-10-29T19:10:03.031Z,10.50
2022-10-29T19:12:35.354Z,10.51
2022-10-29T19:15:09.373Z,10.48
2022-10-29T19:17:41.672Z,10.45
2022-10-29T19:20:14.220Z,10.51
2022-10-29T19:22:47.236Z,10.47
2022-10-29T19:25:19.573Z,10.46
2022-10-29T19:27:51.994Z,10.43
2022-10-29T19:30:25.834Z,10.45
2022-10-29T19:33:01.151Z,10.46
2022-10-29T19:35:37.301Z,10.48
2022-10-29T19:38:09.592Z,10.55
2022-10-29T19:40:41.999Z,10.53
2022-10-29T19:43:14.611Z,10.49
2022-10-29T19:45:47.610Z,10.47
2022-10-29T19:48:19.954Z,10.38
2022-10-29T19:50:54.329Z,10.30
2022-10-29T19:53:27.165Z,10.30
2022-10-29T19:55:59.497Z,10.28
2022-10-29T19:58:32.645Z,10.23
2022-10-29T20:01:07.576Z,10.20
2022-10-29T20:03:40.103Z,10.10
2022-10-29T20:06:13.214Z,10.16
2022-10-29T20:08:45.536Z,10.07
2022-10-29T20:11:17.915Z,10.03
2022-10-29T20:13:50.782Z,10.00
2022-10-29T20:16:23.871Z,9.92
2022-10-29T20:18:56.185Z,9.92
2022-10-29T20:21:28.588Z,9.91
2022-10-29T20:24:00.882Z,9.88
2022-10-29T20:26:33.256Z,9.86
2022-10-29T20:29:05.545Z,9.84
2022-10-29T20:31:41.251Z,9.84
2022-10-29T20:34:14.648Z,9.82
2022-10-29T20:36:47.109Z,9.79
2022-10-29T20:39:19.954Z,9.71
2022-10-29T20:41:52.296Z,9.66
2022-10-29T20:44:24.738Z,9.69
2022-10-29T20:46:57.745Z,9.54
2022-10-29T20:49:30.077Z,9.52
2022-10-29T20:52:02.788Z,9.47
2022-10-29T20:54:35.076Z,9.40
2022-10-29T20:57:07.405Z,9.38
2022-10-29T20:59:39.817Z,9.32
2022-10-29T21:02:12.931Z,9.27
2022-10-29T21:04:45.397Z,9.25
2022-10-29T21:07:18.103Z,9.24
2022-10-29T21:09:51.087Z,9.24
2022-10-29T21:12:23.527Z,9.18
2022-10-29T21:14:55.821Z,9.15
2022-10-29T21:17:28.786Z,9.14
2022-10-29T21:20:01.113Z,9.12
2022-10-29T21:22:33.550Z,9.12
2022-10-29T21:25:06.269Z,9.08
2022-10-29T21:27:38.598Z,9.07
2022-10-29T21:30:12.532Z,9.10
2022-10-29T21:32:45.529Z,8.99
2022-10-29T21:35:17.914Z,8.86
2022-10-29T21:37:50.230Z,8.83
2022-10-29T21:40:22.539Z,8.82
2022-10-29T21:42:55.278Z,8.79
2022-10-29T21:45:27.876Z,8.75
2022-10-29T21:48:00.981Z,8.72
2022-10-29T21:50:33.514Z,8.67
2022-10-29T21:53:07.209Z,8.66
2022-10-29T21:55:39.644Z,8.63
2022-10-29T21:58:11.961Z,8.59
2022-10-29T22:00:44.305Z,8.58
2022-10-29T22:03:17.368Z,8.50
2022-10-29T22:05:49.678Z,8.48
2022-10-29T22:10:56.846Z,8.39
2022-10-29T22:13:30.514Z,8.37
2022-10-29T22:16:04.351Z,8.37
2022-10-29T22:18:38.020Z,8.36
2022-10-29T22:21:12.721Z,8.32
2022-10-29T22:23:47.180Z,8.31
2022-10-29T22:26:21.858Z,8.19
2022-10-29T22:28:54.498Z,8.16
2022-10-29T22:31:26.826Z,8.13
2022-10-29T22:33:59.801Z,8.11
2022-10-29T22:36:32.141Z,8.07
2022-10-29T22:39:04.556Z,8.05
2022-10-29T22:41:36.869Z,8.02
2022-10-29T22:44:09.593Z,7.97
2022-10-29T22:46:41.970Z,7.93
2022-10-29T22:49:14.962Z,7.91
2022-10-29T22:51:47.256Z,7.88
2022-10-29T22:54:19.718Z,7.88
2022-10-29T22:56:52.130Z,7.77
2022-10-29T22:59:24.524Z,7.81
2022-10-29T23:01:56.925Z,7.80
2022-10-29T23:04:29.953Z,7.73
2022-10-29T23:07:02.366Z,7.70
2022-10-29T23:09:34.694Z,7.65
2022-10-29T23:12:07.118Z,7.60
2022-10-29T23:14:39.441Z,7.63
2022-10-29T23:17:11.763Z,7.62
2022-10-29T23:19:44.745Z,7.65
2022-10-29T23:22:17.909Z,7.54
2022-10-29T23:24:51.567Z,7.49
2022-10-29T23:27:23.952Z,7.34
2022-10-29T23:29:56.281Z,7.32
2022-10-29T23:32:28.619Z,7.34
2022-10-29T23:35:01.676Z,7.35
2022-10-29T23:37:33.980Z,7.27
2022-10-29T23:40:07.806Z,7.22
2022-10-29T23:42:40.130Z,7.28
2022-10-29T23:45:13.213Z,7.24
2022-10-29T23:47:46.025Z,7.23
2022-10-29T23:50:19.042Z,7.17
2022-10-29T23:52:51.356Z,7.11
2022-10-29T23:55:23.785Z,7.11
2022-10-29T23:57:56.138Z,7.07
